New Salem, Kansas
Current Conditions -  °F | °C
As of 10:54 PM on Monday 22 Dec 2014 (Local Time) from KWLD Reporting Station
Scattered Clouds Scattered Clouds  
Wind Chill: 33°   Ceiling: Unl
Heat Index: 38°   Visibility: 10mi
Dew Point: 34°   Wind: 7mph
Humidity: 86%   Direction: 260°W
Pressure: 29.67"   Gusts: NA
Location:  37.2455°N, 96.9242°W
Report Text: KWLD 230454Z AUTO 26006KT 10SM FEW080 SCT090 03/01 A2967 RMK AO2 SLP050 T00330011
Loading
Personal Weather Stations






























Interactive Weather Map New forecast layout! Learn more

10-Day Weather Forecast

Advertisements
Track Severe Weather on mobile